This demonstration page uses our WeatherBlox Daily Observations layout. Learn more.

Left ArrowRight Arrow

36.19886, -115.1175

Hourly Observations for August 16, 2020

Temp ( °F °C ) Dew Point ( °F °C ) Humidity (%) Winds ( mph kmh ) Pressure ( in mb ) Visibility ( mi km ) Precip ( " mm )
12:53 am 00:53 Clear 97 36.1 37 2.8 12 12 WNW 6 9 29.8 1009 10 16.0934 0 0
1:53 am 01:53 Clear 99 37.2 36 2.2 11 11 NW 14 22 29.8 1009 10 16.0934 0 0
2:53 am 02:53 Clear 96 35.6 37 2.8 13 13 NW 13 20 29.81 1010 10 16.0934 0 0
3:53 am 03:53 Clear 96 35.6 38 3.3 13 13 NW 12 19 29.81 1010 10 16.0934 0 0
4:53 am 04:53 Clear 95 35 38 3.3 14 14 NNW 9 15 29.82 1010 10 16.0934 0 0
5:53 am 05:53 Clear 92 33.3 38 3.3 15 15 E 6 9 29.84 1011 10 16.0934 0 0
6:53 am 06:53 Sunny 95 35 37 2.8 13 13 NNW 15 24 29.85 1011 10 16.0934 0 0
7:53 am 07:53 Sunny 97 36.1 39 3.9 13 13 N 6 9 29.88 1012 10 16.0934 0 0
8:53 am 08:53 Sunny 99 37.2 40 4.4 13 13 Calm 29.9 1013 10 16.0934 0 0
9:53 am 09:53 Sunny 103 39.4 33 0.6 9 9 Calm 29.9 1013 10 16.0934 0 0
10:53 am 10:53 Sunny 105 40.6 34 1.1 8 8 Calm 29.89 1012 10 16.0934 0 0
11:53 am 11:53 Sunny 108 42.2 35 1.7 8 8 E 7 11 29.88 1012 10 16.0934 0 0
12:53 pm 12:53 Sunny 108 42.2 35 1.7 8 8 ESE 6 9 29.87 1012 10 16.0934 0 0
1:53 pm 13:53 Sunny 111 43.9 31 -0.6 6 6 undefined N/A 29.84 1011 10 16.0934 0 0
2:53 pm 14:53 Sunny 112 44.4 33 0.6 7 7 VRB 3 6 29.83 1010 10 16.0934 0 0
3:53 pm 15:53 Sunny 113 45 34 1.1 7 7 SSE 7 11 29.79 1009 10 16.0934 0 0
4:53 pm 16:53 Sunny 113 45 34 1.1 7 7 ESE 3 6 29.78 1008 10 16.0934 0 0
5:53 pm 17:53 Sunny 112 44.4 33 0.6 7 7 Calm 29.76 1008 10 16.0934 0 0
6:53 pm 18:53 Sunny 111 43.9 34 1.1 7 7 Calm 29.76 1008 10 16.0934 0 0
7:53 pm 19:53 Clear 109 42.8 35 1.7 8 8 Calm 29.77 1008 10 16.0934 0 0
8:53 pm 20:53 Clear 103 39.4 41 5 12 12 W 7 11 29.8 1009 10 16.0934 0 0
9:53 pm 21:53 Clear 100 37.8 42 5.6 14 14 Calm 29.81 1010 10 16.0934 0 0
10:53 pm 22:53 Clear 98 36.7 38 3.3 12 12 NW 8 13 29.81 1009 10 16.0934 0 0
11:53 pm 23:53 Clear 101 38.3 34 1.1 10 10 NW 13 20 29.82 1010 10 16.0934 0 0

Powered by AerisWeather